createdAt,value
2019-05-10T00:00:15.044Z,78.20
2019-05-10T00:03:02.081Z,78.80
2019-05-10T00:05:49.092Z,79.00
2019-05-10T00:08:35.476Z,79.20
2019-05-10T00:11:06.390Z,79.20
2019-05-10T00:13:52.841Z,79.10
2019-05-10T00:16:22.027Z,79.30
2019-05-10T00:18:50.497Z,79.50
2019-05-10T00:21:19.075Z,79.40
2019-05-10T00:23:47.525Z,79.40
2019-05-10T00:26:16.049Z,79.40
2019-05-10T00:28:44.619Z,79.60
2019-05-10T00:31:13.071Z,79.90
2019-05-10T00:33:41.519Z,80.10
2019-05-10T00:36:10.013Z,80.00
2019-05-10T00:38:38.476Z,79.80
2019-05-10T00:41:06.930Z,79.80
2019-05-10T00:43:35.417Z,80.00
2019-05-10T00:46:03.953Z,79.60
2019-05-10T00:48:32.410Z,79.90
2019-05-10T00:51:00.906Z,80.10
2019-05-10T00:53:29.366Z,79.50
2019-05-10T00:55:57.821Z,79.50
2019-05-10T00:58:26.316Z,80.10
2019-05-10T01:00:54.775Z,79.60
2019-05-10T01:03:23.244Z,79.80
2019-05-10T01:05:51.824Z,79.20
2019-05-10T01:08:20.309Z,79.50
2019-05-10T01:10:48.780Z,79.70
2019-05-10T01:13:17.362Z,79.50
2019-05-10T01:15:46.925Z,79.80
2019-05-10T01:18:15.551Z,80.30
2019-05-10T01:20:44.120Z,80.00
2019-05-10T01:23:12.642Z,79.60
2019-05-10T01:25:41.096Z,79.30
2019-05-10T01:28:09.629Z,79.50
2019-05-10T01:30:38.144Z,79.60
2019-05-10T01:33:06.616Z,79.40
2019-05-10T01:35:35.172Z,79.50
2019-05-10T01:38:03.619Z,79.00
2019-05-10T01:40:32.072Z,79.00
2019-05-10T01:43:00.563Z,79.00
2019-05-10T01:45:29.035Z,79.00
2019-05-10T01:47:57.500Z,79.30
2019-05-10T01:50:25.991Z,79.60
2019-05-10T01:52:54.448Z,80.00
2019-05-10T01:55:22.915Z,79.40
2019-05-10T01:57:51.473Z,79.90
2019-05-10T02:00:20.103Z,79.60
2019-05-10T02:02:48.559Z,79.20
2019-05-10T02:05:17.405Z,79.60
2019-05-10T02:07:45.940Z,79.50
2019-05-10T02:10:14.735Z,79.60
2019-05-10T02:12:43.288Z,79.50
2019-05-10T02:15:11.927Z,79.60
2019-05-10T02:17:40.377Z,80.10
2019-05-10T02:20:09.305Z,80.40
2019-05-10T02:22:37.772Z,80.70
2019-05-10T02:25:06.662Z,80.90
2019-05-10T02:27:35.336Z,81.40
2019-05-10T02:30:05.389Z,81.50
2019-05-10T02:32:33.911Z,82.00
2019-05-10T02:35:02.409Z,81.80
2019-05-10T02:37:30.859Z,82.10
2019-05-10T02:39:59.324Z,82.30
2019-05-10T02:42:27.818Z,82.40
2019-05-10T02:44:56.360Z,83.40
2019-05-10T02:47:24.879Z,83.00
2019-05-10T02:49:53.403Z,83.70
2019-05-10T02:52:22.013Z,83.90
2019-05-10T02:54:50.466Z,83.70
2019-05-10T02:57:20.505Z,83.90
2019-05-10T02:59:49.817Z,84.40
2019-05-10T03:02:18.567Z,84.70
2019-05-10T03:04:47.216Z,84.70
2019-05-10T03:07:18.179Z,84.60
2019-05-10T03:09:49.114Z,84.80
2019-05-10T03:12:26.396Z,84.70
2019-05-10T03:14:57.205Z,84.90
2019-05-10T03:17:27.711Z,84.90
2019-05-10T03:20:17.065Z,84.80
2019-05-10T03:22:45.607Z,85.00
2019-05-10T03:25:14.642Z,84.80
2019-05-10T03:27:43.597Z,84.90
2019-05-10T03:30:12.469Z,85.20
2019-05-10T03:32:41.066Z,84.80
2019-05-10T03:35:10.891Z,84.80
2019-05-10T03:37:39.420Z,85.00
2019-05-10T03:40:08.924Z,85.30
2019-05-10T03:42:37.483Z,85.40
2019-05-10T03:45:07.887Z,85.40
2019-05-10T03:47:36.346Z,85.30
2019-05-10T03:50:08.302Z,85.20
2019-05-10T03:52:36.876Z,85.50
2019-05-10T03:55:07.184Z,85.40
2019-05-10T03:57:35.903Z,85.10
2019-05-10T04:00:11.875Z,85.10
2019-05-10T04:02:40.448Z,85.00
2019-05-10T04:05:09.747Z,84.60
2019-05-10T04:07:38.208Z,84.00
2019-05-10T04:10:06.966Z,83.70
2019-05-10T04:12:35.669Z,83.80
2019-05-10T04:15:06.945Z,84.00
2019-05-10T04:17:35.451Z,83.70
2019-05-10T04:20:06.757Z,83.40
2019-05-10T04:22:35.304Z,83.60
2019-05-10T04:25:04.936Z,83.30
2019-05-10T04:27:33.613Z,82.50
2019-05-10T04:30:02.171Z,82.70
2019-05-10T04:32:30.738Z,82.70
2019-05-10T04:34:59.197Z,82.80
2019-05-10T04:37:27.651Z,82.70
2019-05-10T04:39:56.182Z,82.40
2019-05-10T04:42:24.712Z,83.10
2019-05-10T04:44:54.108Z,82.50
2019-05-10T04:47:22.816Z,82.20
2019-05-10T04:49:51.284Z,82.30
2019-05-10T04:52:19.802Z,82.00
2019-05-10T04:54:48.374Z,81.90
2019-05-10T04:57:16.900Z,81.40
2019-05-10T04:59:45.367Z,82.40
2019-05-10T05:02:13.879Z,81.40
2019-05-10T05:04:42.336Z,81.50
2019-05-10T05:07:10.799Z,81.00
2019-05-10T05:09:58.635Z,81.00
2019-05-10T05:12:27.170Z,81.50
2019-05-10T05:14:55.627Z,80.90
2019-05-10T05:17:24.124Z,81.00
2019-05-10T05:19:52.594Z,81.50
2019-05-10T05:22:21.048Z,81.70
2019-05-10T05:24:49.557Z,82.10
2019-05-10T05:27:18.021Z,81.70
2019-05-10T05:29:46.477Z,81.80
2019-05-10T05:32:14.979Z,82.00
2019-05-10T05:34:43.462Z,81.60
2019-05-10T05:37:11.984Z,82.00
2019-05-10T05:39:40.485Z,82.10
2019-05-10T05:42:09.195Z,81.60
2019-05-10T05:44:37.806Z,82.40
2019-05-10T05:47:06.370Z,82.50
2019-05-10T05:49:54.162Z,82.50
2019-05-10T05:52:22.803Z,82.40
2019-05-10T05:54:52.818Z,82.40
2019-05-10T05:57:22.270Z,82.70
2019-05-10T05:59:57.234Z,82.90
2019-05-10T06:02:21.845Z,82.80
2019-05-10T06:04:50.297Z,82.80
2019-05-10T06:07:18.814Z,82.60
2019-05-10T06:09:47.278Z,82.90
2019-05-10T06:12:15.737Z,82.90
2019-05-10T06:14:49.769Z,82.30
2019-05-10T06:17:14.414Z,82.70
2019-05-10T06:19:42.868Z,81.70
2019-05-10T06:22:11.532Z,82.50
2019-05-10T06:24:39.995Z,82.20
2019-05-10T06:27:08.457Z,81.90
2019-05-10T06:29:36.968Z,82.70
2019-05-10T06:32:05.495Z,82.70
2019-05-10T06:34:38.821Z,83.00
2019-05-10T06:37:04.260Z,82.40
2019-05-10T06:39:32.730Z,82.80
2019-05-10T06:42:01.261Z,82.10
2019-05-10T06:44:31.266Z,82.30
2019-05-10T06:47:02.145Z,82.50
2019-05-10T06:49:30.122Z,82.70
2019-05-10T06:51:58.627Z,82.90
2019-05-10T06:54:27.077Z,82.80
2019-05-10T06:56:55.524Z,83.70
2019-05-10T06:59:25.008Z,83.30
2019-05-10T07:01:54.193Z,82.30
2019-05-10T07:04:22.651Z,83.30
2019-05-10T07:06:51.139Z,83.30
2019-05-10T07:09:19.606Z,81.90
2019-05-10T07:11:48.069Z,81.90
2019-05-10T07:14:16.637Z,82.00
2019-05-10T07:16:45.156Z,81.30
2019-05-10T07:19:13.609Z,82.00
2019-05-10T07:21:44.841Z,81.90
2019-05-10T07:24:12.287Z,82.70
2019-05-10T07:26:40.823Z,82.60
2019-05-10T07:29:09.320Z,84.60
2019-05-10T07:31:37.780Z,84.30
2019-05-10T07:34:09.633Z,84.10
2019-05-10T07:36:36.550Z,83.50
2019-05-10T07:39:08.397Z,83.90
2019-05-10T07:41:36.911Z,84.90
2019-05-10T07:44:07.716Z,85.30
2019-05-10T07:46:40.018Z,84.50
2019-05-10T07:49:06.729Z,84.00
2019-05-10T07:51:35.213Z,83.40
2019-05-10T07:54:06.248Z,83.90
2019-05-10T07:56:39.091Z,84.90
2019-05-10T07:59:04.158Z,84.10
2019-05-10T08:01:52.012Z,84.40
2019-05-10T08:04:32.280Z,83.00
2019-05-10T08:06:52.108Z,82.00
2019-05-10T08:09:20.803Z,82.60
2019-05-10T08:11:54.095Z,83.30
2019-05-10T08:14:19.479Z,83.40
2019-05-10T08:16:57.674Z,83.40
2019-05-10T08:19:18.147Z,82.40
2019-05-10T08:21:48.832Z,80.40
2019-05-10T08:24:16.902Z,81.80
2019-05-10T08:26:45.534Z,81.60
2019-05-10T08:29:16.935Z,81.90
2019-05-10T08:31:50.590Z,81.30
2019-05-10T08:34:14.371Z,83.00
2019-05-10T08:36:47.530Z,83.60
2019-05-10T08:39:14.028Z,83.70
2019-05-10T08:41:43.991Z,81.00
2019-05-10T08:44:19.505Z,81.70
2019-05-10T08:46:44.361Z,81.70
2019-05-10T08:49:13.163Z,80.80
2019-05-10T08:51:47.741Z,81.80
2019-05-10T08:54:12.196Z,81.40
2019-05-10T08:56:43.962Z,81.70
2019-05-10T08:59:16.323Z,81.70
2019-05-10T09:01:46.916Z,80.50
2019-05-10T09:04:13.811Z,81.00
2019-05-10T09:06:42.127Z,81.50
2019-05-10T09:09:12.568Z,82.30
2019-05-10T09:11:43.924Z,82.10
2019-05-10T09:14:12.308Z,82.80
2019-05-10T09:16:45.668Z,82.00
2019-05-10T09:19:12.432Z,80.30
2019-05-10T09:21:49.311Z,82.60
2019-05-10T09:24:12.833Z,81.40
2019-05-10T09:26:41.920Z,81.80
2019-05-10T09:29:12.145Z,79.80
2019-05-10T09:31:45.944Z,80.30
2019-05-10T09:34:12.244Z,79.70
2019-05-10T09:36:44.912Z,79.90
2019-05-10T09:39:17.711Z,80.40
2019-05-10T09:41:42.187Z,80.10
2019-05-10T09:44:13.073Z,79.30
2019-05-10T09:46:42.338Z,79.00
2019-05-10T09:49:15.768Z,77.90
2019-05-10T09:51:42.256Z,80.10
2019-05-10T09:54:10.985Z,79.60
2019-05-10T09:56:44.439Z,78.90
2019-05-10T09:59:09.650Z,78.60
2019-05-10T10:01:38.110Z,78.30
2019-05-10T10:04:06.668Z,77.80
2019-05-10T10:06:36.945Z,78.30
2019-05-10T10:09:07.905Z,78.20
2019-05-10T10:11:37.514Z,77.40
2019-05-10T10:14:07.624Z,77.80
2019-05-10T10:16:36.300Z,75.50
2019-05-10T10:19:07.032Z,75.50
2019-05-10T10:21:38.589Z,72.50
2019-05-10T10:24:15.791Z,73.10
2019-05-10T10:26:37.923Z,75.10
2019-05-10T10:29:07.335Z,73.50
2019-05-10T10:31:50.076Z,71.50
2019-05-10T10:34:07.524Z,75.40
2019-05-10T10:36:40.202Z,74.90
2019-05-10T10:39:07.597Z,74.80
2019-05-10T10:41:36.148Z,74.40
2019-05-10T10:44:04.676Z,76.50
2019-05-10T10:46:34.641Z,73.90
2019-05-10T10:49:05.520Z,70.10
2019-05-10T10:51:34.578Z,75.60
2019-05-10T10:54:03.238Z,74.50
2019-05-10T10:56:31.800Z,71.30
2019-05-10T10:59:00.247Z,69.00
2019-05-10T11:01:44.812Z,71.80
2019-05-10T11:04:03.440Z,69.80
2019-05-10T11:06:29.188Z,74.60
2019-05-10T11:08:57.651Z,76.20
2019-05-10T11:11:30.474Z,75.10
2019-05-10T11:14:00.467Z,75.50
2019-05-10T11:16:26.534Z,76.30
2019-05-10T11:18:55.473Z,77.10
2019-05-10T11:21:28.815Z,76.60
2019-05-10T11:23:54.183Z,74.90
2019-05-10T11:26:26.913Z,74.90
2019-05-10T11:28:52.854Z,72.70
2019-05-10T11:31:21.484Z,72.90
2019-05-10T11:33:56.109Z,70.60
2019-05-10T11:36:21.170Z,64.30
2019-05-10T11:38:56.493Z,69.50
2019-05-10T11:41:24.207Z,64.50
2019-05-10T11:43:50.246Z,65.20
2019-05-10T11:46:20.903Z,63.10
2019-05-10T11:48:51.017Z,65.10
2019-05-10T11:51:21.176Z,65.40
2019-05-10T11:53:55.556Z,64.30
2019-05-10T11:56:26.794Z,64.60
2019-05-10T11:58:54.888Z,69.40
2019-05-10T12:01:22.263Z,70.30
2019-05-10T12:03:50.429Z,74.40
2019-05-10T12:06:21.231Z,73.00
2019-05-10T12:08:52.791Z,73.60
2019-05-10T12:11:29.325Z,71.40
2019-05-10T12:13:56.788Z,72.00
2019-05-10T12:16:21.469Z,70.30
2019-05-10T12:19:05.507Z,72.10
2019-05-10T12:21:21.781Z,72.00
2019-05-10T12:23:55.569Z,73.30
2019-05-10T12:28:51.168Z,71.40
2019-05-10T12:31:21.090Z,70.70
2019-05-10T12:33:50.585Z,70.60
2019-05-10T12:36:25.599Z,68.80
2019-05-10T12:38:49.479Z,68.10
2019-05-10T12:41:17.995Z,69.80
2019-05-10T12:43:48.479Z,66.50
2019-05-10T12:46:16.708Z,66.20
2019-05-10T12:48:45.224Z,67.80
2019-05-10T12:51:16.268Z,67.40
2019-05-10T12:53:47.643Z,65.50
2019-05-10T12:56:14.211Z,68.50
2019-05-10T12:58:42.748Z,67.60
2019-05-10T13:01:11.268Z,69.00
2019-05-10T13:03:39.791Z,71.30
2019-05-10T13:06:08.252Z,66.80
2019-05-10T13:08:36.709Z,66.60
2019-05-10T13:11:05.280Z,66.70
2019-05-10T13:13:33.750Z,66.80
2019-05-10T13:16:03.426Z,68.50
2019-05-10T13:18:49.847Z,67.00
2019-05-10T13:21:02.784Z,68.00
2019-05-10T13:23:31.230Z,68.30
2019-05-10T13:25:59.725Z,69.40
2019-05-10T13:28:28.187Z,68.10
2019-05-10T13:30:59.780Z,68.60
2019-05-10T13:33:29.320Z,65.10
2019-05-10T13:35:58.583Z,64.00
2019-05-10T13:38:27.530Z,63.90
2019-05-10T13:40:58.286Z,65.50
2019-05-10T13:43:28.216Z,63.20
2019-05-10T13:45:56.978Z,64.40
2019-05-10T13:48:26.629Z,65.60
2019-05-10T13:50:55.748Z,68.80
2019-05-10T13:53:24.332Z,59.60
2019-05-10T13:55:52.839Z,63.50
2019-05-10T13:58:21.288Z,61.30
2019-05-10T14:00:49.770Z,60.10
2019-05-10T14:03:18.341Z,61.60
2019-05-10T14:05:46.800Z,61.90
2019-05-10T14:08:15.335Z,60.40
2019-05-10T14:10:43.894Z,60.80
2019-05-10T14:13:16.380Z,61.50
2019-05-10T14:15:42.535Z,62.60
2019-05-10T14:18:11.116Z,62.10
2019-05-10T14:20:39.643Z,62.00
2019-05-10T14:23:08.109Z,57.60
2019-05-10T14:25:38.755Z,61.50
2019-05-10T14:28:09.637Z,59.10
2019-05-10T14:30:36.983Z,61.20
2019-05-10T14:33:08.720Z,59.50
2019-05-10T14:35:35.658Z,59.80
2019-05-10T14:38:08.801Z,58.20
2019-05-10T14:40:34.507Z,58.80
2019-05-10T14:43:02.958Z,59.50
2019-05-10T14:45:31.434Z,57.60
2019-05-10T14:47:59.932Z,60.40
2019-05-10T14:50:28.657Z,59.20
2019-05-10T14:52:57.367Z,60.50
2019-05-10T14:55:27.877Z,62.00
2019-05-10T14:57:56.097Z,59.50
2019-05-10T15:00:24.897Z,62.80
2019-05-10T15:02:56.653Z,59.50
2019-05-10T15:05:24.389Z,62.10
2019-05-10T15:07:52.857Z,61.20
2019-05-10T15:10:21.362Z,59.70
2019-05-10T15:12:49.816Z,60.50
2019-05-10T15:15:18.521Z,60.80
2019-05-10T15:17:47.023Z,60.70
2019-05-10T15:20:15.545Z,61.40
2019-05-10T15:22:44.003Z,60.60
2019-05-10T15:25:12.940Z,59.40
2019-05-10T15:27:41.399Z,59.00
2019-05-10T15:30:11.797Z,61.00
2019-05-10T15:32:40.311Z,61.70
2019-05-10T15:35:09.404Z,59.80
2019-05-10T15:37:40.841Z,59.80
2019-05-10T15:40:09.622Z,60.30
2019-05-10T15:42:38.512Z,59.40
2019-05-10T15:45:12.121Z,58.30
2019-05-10T15:47:50.834Z,59.70
2019-05-10T15:50:10.806Z,59.30
2019-05-10T15:52:45.663Z,60.30
2019-05-10T15:55:09.821Z,59.40
2019-05-10T15:57:38.384Z,60.30
2019-05-10T16:00:08.053Z,59.10
2019-05-10T16:02:36.566Z,58.70
2019-05-10T16:05:23.231Z,58.90
2019-05-10T16:07:37.490Z,58.80
2019-05-10T16:10:06.602Z,61.70
2019-05-10T16:12:37.789Z,60.30
2019-05-10T16:15:06.983Z,58.40
2019-05-10T16:17:35.490Z,59.30
2019-05-10T16:20:04.279Z,59.70
2019-05-10T16:22:32.747Z,59.10
2019-05-10T16:25:02.798Z,58.90
2019-05-10T16:27:33.944Z,58.90
2019-05-10T16:30:01.732Z,58.80
2019-05-10T16:32:34.525Z,58.40
2019-05-10T16:35:06.018Z,58.10
2019-05-10T16:37:30.609Z,59.40
2019-05-10T16:39:59.105Z,61.30
2019-05-10T16:42:33.683Z,61.80
2019-05-10T16:44:57.752Z,62.20
2019-05-10T16:47:26.269Z,60.30
2019-05-10T16:49:55.196Z,60.00
2019-05-10T16:52:26.176Z,61.10
2019-05-10T16:54:57.819Z,63.00
2019-05-10T16:57:24.270Z,61.80
2019-05-10T16:59:52.726Z,62.00
2019-05-10T17:02:21.230Z,61.90
2019-05-10T17:04:49.760Z,61.90
2019-05-10T17:07:18.822Z,64.60
2019-05-10T17:09:49.469Z,62.80
2019-05-10T17:12:22.146Z,67.30
2019-05-10T17:14:50.447Z,66.10
2019-05-10T17:17:19.122Z,65.90
2019-05-10T17:19:47.581Z,66.00
2019-05-10T17:22:16.043Z,67.40
2019-05-10T17:24:44.549Z,66.50
2019-05-10T17:27:12.992Z,67.10
2019-05-10T17:29:44.602Z,68.10
2019-05-10T17:32:11.698Z,67.80
2019-05-10T17:34:40.160Z,68.60
2019-05-10T17:37:08.616Z,66.60
2019-05-10T17:39:37.123Z,67.80
2019-05-10T17:42:05.579Z,67.80
2019-05-10T17:44:34.121Z,66.90
2019-05-10T17:47:02.609Z,67.50
2019-05-10T17:49:31.128Z,67.00
2019-05-10T17:51:59.593Z,69.60
2019-05-10T17:54:28.094Z,69.80
2019-05-10T17:56:56.541Z,67.90
2019-05-10T17:59:24.990Z,68.80
2019-05-10T18:01:53.491Z,69.60
2019-05-10T18:04:21.947Z,71.50
2019-05-10T18:06:50.469Z,69.60
2019-05-10T18:09:18.973Z,68.90
2019-05-10T18:11:47.493Z,69.10
2019-05-10T18:14:17.876Z,70.30
2019-05-10T18:16:47.939Z,70.00
2019-05-10T18:19:19.261Z,71.00
2019-05-10T18:21:46.675Z,70.80
2019-05-10T18:24:15.182Z,71.30
2019-05-10T18:26:43.636Z,70.50
2019-05-10T18:29:12.098Z,72.20
2019-05-10T18:31:40.584Z,73.30
2019-05-10T18:34:09.049Z,73.70
2019-05-10T18:36:51.071Z,72.80
2019-05-10T18:39:14.748Z,73.80
2019-05-10T18:41:41.389Z,73.10
2019-05-10T18:44:14.186Z,74.00
2019-05-10T18:46:39.353Z,72.80
2019-05-10T18:49:07.813Z,73.70
2019-05-10T18:51:36.277Z,71.70
2019-05-10T18:54:04.858Z,74.30
2019-05-10T18:56:33.364Z,72.70
2019-05-10T18:59:07.441Z,73.50
2019-05-10T19:01:33.025Z,72.60
2019-05-10T19:04:07.241Z,72.70
2019-05-10T19:06:32.559Z,72.80
2019-05-10T19:09:01.125Z,74.80
2019-05-10T19:11:33.252Z,75.50
2019-05-10T19:13:59.860Z,75.00
2019-05-10T19:16:32.125Z,75.40
2019-05-10T19:19:01.837Z,75.80
2019-05-10T19:21:30.817Z,76.30
2019-05-10T19:23:59.508Z,76.40
2019-05-10T19:26:30.011Z,77.20
2019-05-10T19:28:58.984Z,75.70
2019-05-10T19:31:31.554Z,76.80
2019-05-10T19:33:58.589Z,77.40
2019-05-10T19:36:27.047Z,76.50
2019-05-10T19:38:55.552Z,76.10
2019-05-10T19:41:25.669Z,75.80
2019-05-10T19:43:55.830Z,76.10
2019-05-10T19:46:24.440Z,77.40
2019-05-10T19:48:52.910Z,75.80
2019-05-10T19:51:22.818Z,75.30
2019-05-10T19:53:51.559Z,75.70
2019-05-10T19:56:20.025Z,75.50
2019-05-10T19:58:49.423Z,76.00
2019-05-10T20:01:18.155Z,75.90
2019-05-10T20:03:46.621Z,75.80
2019-05-10T20:06:15.067Z,75.50
2019-05-10T20:08:43.564Z,78.00
2019-05-10T20:11:12.094Z,78.00
2019-05-10T20:13:40.559Z,76.90
2019-05-10T20:16:09.060Z,75.90
2019-05-10T20:18:37.526Z,76.00
2019-05-10T20:21:06.068Z,74.90
2019-05-10T20:23:34.629Z,76.10
2019-05-10T20:26:03.096Z,75.50
2019-05-10T20:28:31.556Z,75.30
2019-05-10T20:31:00.058Z,75.20
2019-05-10T20:33:28.527Z,76.10
2019-05-10T20:35:56.980Z,75.70
2019-05-10T20:38:25.551Z,76.50
2019-05-10T20:40:54.011Z,76.10
2019-05-10T20:43:22.474Z,77.60
2019-05-10T20:45:51.046Z,78.50
2019-05-10T20:48:19.528Z,78.90
2019-05-10T20:50:48.044Z,77.80
2019-05-10T20:53:16.609Z,77.70
2019-05-10T20:55:45.097Z,80.30
2019-05-10T20:58:13.614Z,80.30
2019-05-10T21:00:42.101Z,79.70
2019-05-10T21:03:10.557Z,79.90
2019-05-10T21:05:39.015Z,80.60
2019-05-10T21:08:16.507Z,81.50
2019-05-10T21:10:37.696Z,80.40
2019-05-10T21:13:06.149Z,81.70
2019-05-10T21:15:34.657Z,80.60
2019-05-10T21:18:03.212Z,81.10
2019-05-10T21:20:31.748Z,80.90
2019-05-10T21:23:00.258Z,80.50
2019-05-10T21:25:28.716Z,80.00
2019-05-10T21:27:57.172Z,80.10
2019-05-10T21:30:25.685Z,80.60
2019-05-10T21:32:54.204Z,80.70
2019-05-10T21:35:22.657Z,80.60
2019-05-10T21:37:51.158Z,81.90
2019-05-10T21:40:19.624Z,81.50
2019-05-10T21:42:48.084Z,81.20
2019-05-10T21:45:16.595Z,80.80
2019-05-10T21:47:51.765Z,81.00
2019-05-10T21:50:15.313Z,81.00
2019-05-10T21:52:43.806Z,80.90
2019-05-10T21:55:12.336Z,81.40
2019-05-10T21:57:40.804Z,81.20
2019-05-10T22:00:11.504Z,80.10
2019-05-10T22:02:40.062Z,80.00
2019-05-10T22:05:08.846Z,80.00
2019-05-10T22:07:37.535Z,80.00
2019-05-10T22:10:07.539Z,79.60
2019-05-10T22:12:35.999Z,80.00
2019-05-10T22:15:06.851Z,81.50
2019-05-10T22:17:35.326Z,79.90
2019-05-10T22:20:23.234Z,80.50
2019-05-10T22:22:51.774Z,80.20
2019-05-10T22:25:20.237Z,81.00
2019-05-10T22:27:48.736Z,79.80
2019-05-10T22:30:17.363Z,80.00
2019-05-10T22:32:45.818Z,79.90
2019-05-10T22:35:14.391Z,79.50
2019-05-10T22:37:42.932Z,80.10
2019-05-10T22:40:11.632Z,78.70
2019-05-10T22:42:40.196Z,79.30
2019-05-10T22:45:08.893Z,80.30
2019-05-10T22:47:37.427Z,79.80
2019-05-10T22:50:07.580Z,79.50
2019-05-10T22:52:36.171Z,79.00
2019-05-10T22:55:05.568Z,79.40
2019-05-10T22:57:34.111Z,79.20
2019-05-10T23:00:03.306Z,79.30
2019-05-10T23:02:31.762Z,79.20
2019-05-10T23:05:00.258Z,79.80
2019-05-10T23:07:28.715Z,80.00
2019-05-10T23:09:57.171Z,79.70
2019-05-10T23:12:25.679Z,79.70
2019-05-10T23:14:54.206Z,80.00
2019-05-10T23:17:22.666Z,80.00
2019-05-10T23:19:51.170Z,80.30
2019-05-10T23:22:19.694Z,80.90
2019-05-10T23:24:48.144Z,80.40
2019-05-10T23:27:16.716Z,80.60
2019-05-10T23:29:45.177Z,80.80
2019-05-10T23:32:13.706Z,80.60
2019-05-10T23:34:42.220Z,80.40
2019-05-10T23:37:10.745Z,80.90
2019-05-10T23:39:41.230Z,81.00
2019-05-10T23:42:09.583Z,81.40
2019-05-10T23:44:38.048Z,81.30
2019-05-10T23:47:06.511Z,80.70
2019-05-10T23:49:35.030Z,82.10
2019-05-10T23:52:03.815Z,81.10
2019-05-10T23:54:32.702Z,81.50
2019-05-10T23:57:01.281Z,81.10
2019-05-10T23:59:29.742Z,81.40
